sensor_id;sensor_type;location;lat;lon;timestamp;P1;durP1;ratioP1;P2;durP2;ratioP2
59492;SDS011;45497;43.996;22.876;2022-11-20T00:00:28;8.23;;;6.95;;
59492;SDS011;45497;43.996;22.876;2022-11-20T00:02:53;8.30;;;7.17;;
59492;SDS011;45497;43.996;22.876;2022-11-20T00:05:18;10.52;;;8.00;;
59492;SDS011;45497;43.996;22.876;2022-11-20T00:07:45;9.25;;;7.88;;
59492;SDS011;45497;43.996;22.876;2022-11-20T00:10:11;10.88;;;7.95;;
59492;SDS011;45497;43.996;22.876;2022-11-20T00:12:37;14.17;;;9.43;;
59492;SDS011;45497;43.996;22.876;2022-11-20T00:15:03;16.87;;;10.00;;
59492;SDS011;45497;43.996;22.876;2022-11-20T00:17:29;13.05;;;9.25;;
59492;SDS011;45497;43.996;22.876;2022-11-20T00:19:54;12.23;;;8.90;;
59492;SDS011;45497;43.996;22.876;2022-11-20T00:22:20;9.23;;;7.67;;
59492;SDS011;45497;43.996;22.876;2022-11-20T00:24:45;10.50;;;7.63;;
59492;SDS011;45497;43.996;22.876;2022-11-20T00:27:11;9.13;;;7.20;;
59492;SDS011;45497;43.996;22.876;2022-11-20T00:29:36;9.40;;;6.90;;
59492;SDS011;45497;43.996;22.876;2022-11-20T00:32:02;9.20;;;7.37;;
59492;SDS011;45497;43.996;22.876;2022-11-20T00:34:27;10.00;;;8.00;;
59492;SDS011;45497;43.996;22.876;2022-11-20T00:36:53;9.70;;;7.73;;
59492;SDS011;45497;43.996;22.876;2022-11-20T00:39:18;10.65;;;8.15;;
59492;SDS011;45497;43.996;22.876;2022-11-20T00:41:44;10.10;;;8.53;;
59492;SDS011;45497;43.996;22.876;2022-11-20T00:44:09;10.80;;;8.35;;
59492;SDS011;45497;43.996;22.876;2022-11-20T00:46:34;11.37;;;8.67;;
59492;SDS011;45497;43.996;22.876;2022-11-20T00:49:00;11.70;;;8.93;;
59492;SDS011;45497;43.996;22.876;2022-11-20T00:51:26;12.27;;;9.27;;
59492;SDS011;45497;43.996;22.876;2022-11-20T00:53:54;11.52;;;9.13;;
59492;SDS011;45497;43.996;22.876;2022-11-20T00:56:21;12.52;;;9.10;;
59492;SDS011;45497;43.996;22.876;2022-11-20T00:58:47;11.77;;;8.97;;
59492;SDS011;45497;43.996;22.876;2022-11-20T01:01:17;10.23;;;8.77;;
59492;SDS011;45497;43.996;22.876;2022-11-20T01:03:49;11.88;;;9.60;;
59492;SDS011;45497;43.996;22.876;2022-11-20T01:06:23;12.35;;;9.73;;
59492;SDS011;45497;43.996;22.876;2022-11-20T01:08:50;12.75;;;9.48;;
59492;SDS011;45497;43.996;22.876;2022-11-20T01:11:20;13.45;;;9.93;;
59492;SDS011;45497;43.996;22.876;2022-11-20T01:13:51;13.20;;;9.60;;
59492;SDS011;45497;43.996;22.876;2022-11-20T01:16:31;13.52;;;9.90;;
59492;SDS011;45497;43.996;22.876;2022-11-20T01:19:02;14.07;;;10.55;;
59492;SDS011;45497;43.996;22.876;2022-11-20T01:21:36;14.68;;;11.07;;
59492;SDS011;45497;43.996;22.876;2022-11-20T01:24:05;15.38;;;11.45;;
59492;SDS011;45497;43.996;22.876;2022-11-20T01:26:34;13.90;;;10.87;;
59492;SDS011;45497;43.996;22.876;2022-11-20T01:29:00;16.42;;;11.82;;
59492;SDS011;45497;43.996;22.876;2022-11-20T01:31:28;15.10;;;10.60;;
59492;SDS011;45497;43.996;22.876;2022-11-20T01:33:57;14.33;;;11.20;;
59492;SDS011;45497;43.996;22.876;2022-11-20T01:36:35;15.05;;;11.98;;
59492;SDS011;45497;43.996;22.876;2022-11-20T01:39:05;14.38;;;12.23;;
59492;SDS011;45497;43.996;22.876;2022-11-20T01:41:52;16.88;;;12.32;;
59492;SDS011;45497;43.996;22.876;2022-11-20T01:47:25;16.63;;;13.50;;
59492;SDS011;45497;43.996;22.876;2022-11-20T01:49:56;20.85;;;15.45;;
59492;SDS011;45497;43.996;22.876;2022-11-20T01:52:27;19.15;;;15.05;;
59492;SDS011;45497;43.996;22.876;2022-11-20T01:55:10;20.75;;;15.77;;
59492;SDS011;45497;43.996;22.876;2022-11-20T01:57:40;20.17;;;15.98;;
59492;SDS011;45497;43.996;22.876;2022-11-20T02:00:09;22.83;;;15.73;;
59492;SDS011;45497;43.996;22.876;2022-11-20T02:02:37;22.48;;;16.70;;
59492;SDS011;45497;43.996;22.876;2022-11-20T02:05:21;24.97;;;19.13;;
59492;SDS011;45497;43.996;22.876;2022-11-20T02:07:52;24.40;;;18.75;;
59492;SDS011;45497;43.996;22.876;2022-11-20T02:10:19;23.57;;;19.37;;
59492;SDS011;45497;43.996;22.876;2022-11-20T02:12:45;26.45;;;19.80;;
59492;SDS011;45497;43.996;22.876;2022-11-20T02:15:29;26.00;;;19.38;;
59492;SDS011;45497;43.996;22.876;2022-11-20T02:17:55;25.53;;;19.50;;
59492;SDS011;45497;43.996;22.876;2022-11-20T02:20:20;24.77;;;20.00;;
59492;SDS011;45497;43.996;22.876;2022-11-20T02:23:31;26.02;;;20.48;;
59492;SDS011;45497;43.996;22.876;2022-11-20T02:25:39;28.15;;;21.25;;
59492;SDS011;45497;43.996;22.876;2022-11-20T02:28:06;28.45;;;21.60;;
59492;SDS011;45497;43.996;22.876;2022-11-20T02:30:32;28.20;;;22.13;;
59492;SDS011;45497;43.996;22.876;2022-11-20T02:32:58;27.00;;;20.70;;
59492;SDS011;45497;43.996;22.876;2022-11-20T02:37:50;26.13;;;20.97;;
59492;SDS011;45497;43.996;22.876;2022-11-20T02:40:18;28.08;;;21.48;;
59492;SDS011;45497;43.996;22.876;2022-11-20T02:42:43;26.25;;;20.33;;
59492;SDS011;45497;43.996;22.876;2022-11-20T02:45:09;28.25;;;22.45;;
59492;SDS011;45497;43.996;22.876;2022-11-20T02:47:35;28.20;;;20.83;;
59492;SDS011;45497;43.996;22.876;2022-11-20T02:50:00;25.37;;;20.23;;
59492;SDS011;45497;43.996;22.876;2022-11-20T02:52:26;25.07;;;20.00;;
59492;SDS011;45497;43.996;22.876;2022-11-20T02:54:52;26.95;;;21.67;;
59492;SDS011;45497;43.996;22.876;2022-11-20T02:57:17;28.38;;;21.63;;
59492;SDS011;45497;43.996;22.876;2022-11-20T02:59:43;29.10;;;22.10;;
59492;SDS011;45497;43.996;22.876;2022-11-20T03:02:08;27.80;;;20.70;;
59492;SDS011;45497;43.996;22.876;2022-11-20T03:04:34;26.23;;;20.95;;
59492;SDS011;45497;43.996;22.876;2022-11-20T03:07:00;27.07;;;20.77;;
59492;SDS011;45497;43.996;22.876;2022-11-20T03:09:25;27.53;;;21.30;;
59492;SDS011;45497;43.996;22.876;2022-11-20T03:11:51;28.07;;;20.70;;
59492;SDS011;45497;43.996;22.876;2022-11-20T03:14:16;28.50;;;20.77;;
59492;SDS011;45497;43.996;22.876;2022-11-20T03:16:42;32.33;;;23.23;;
59492;SDS011;45497;43.996;22.876;2022-11-20T03:19:07;32.03;;;22.70;;
59492;SDS011;45497;43.996;22.876;2022-11-20T03:21:33;29.27;;;24.37;;
59492;SDS011;45497;43.996;22.876;2022-11-20T03:23:59;28.83;;;21.43;;
59492;SDS011;45497;43.996;22.876;2022-11-20T03:26:25;30.13;;;21.42;;
59492;SDS011;45497;43.996;22.876;2022-11-20T03:28:52;28.90;;;21.42;;
59492;SDS011;45497;43.996;22.876;2022-11-20T03:31:21;29.42;;;20.75;;
59492;SDS011;45497;43.996;22.876;2022-11-20T03:33:48;28.42;;;21.00;;
59492;SDS011;45497;43.996;22.876;2022-11-20T03:36:15;29.53;;;21.03;;
59492;SDS011;45497;43.996;22.876;2022-11-20T03:38:42;29.70;;;21.88;;
59492;SDS011;45497;43.996;22.876;2022-11-20T03:41:11;29.00;;;22.00;;
59492;SDS011;45497;43.996;22.876;2022-11-20T03:43:51;31.60;;;21.63;;
59492;SDS011;45497;43.996;22.876;2022-11-20T03:46:18;31.27;;;21.63;;
59492;SDS011;45497;43.996;22.876;2022-11-20T03:48:43;30.38;;;22.08;;
59492;SDS011;45497;43.996;22.876;2022-11-20T03:51:13;28.13;;;22.07;;
59492;SDS011;45497;43.996;22.876;2022-11-20T03:53:40;26.77;;;22.75;;
59492;SDS011;45497;43.996;22.876;2022-11-20T03:56:07;26.83;;;21.15;;
59492;SDS011;45497;43.996;22.876;2022-11-20T03:58:34;27.42;;;21.55;;
59492;SDS011;45497;43.996;22.876;2022-11-20T04:01:10;28.85;;;21.25;;
59492;SDS011;45497;43.996;22.876;2022-11-20T04:03:38;29.88;;;21.75;;
59492;SDS011;45497;43.996;22.876;2022-11-20T04:06:06;27.02;;;21.42;;
59492;SDS011;45497;43.996;22.876;2022-11-20T04:08:58;46.70;;;41.83;;
59492;SDS011;45497;43.996;22.876;2022-11-20T04:11:27;133.85;;;122.55;;
59492;SDS011;45497;43.996;22.876;2022-11-20T04:14:01;82.50;;;75.15;;
59492;SDS011;45497;43.996;22.876;2022-11-20T04:16:29;48.35;;;43.45;;
59492;SDS011;45497;43.996;22.876;2022-11-20T04:18:57;31.02;;;25.73;;
59492;SDS011;45497;43.996;22.876;2022-11-20T04:21:24;29.97;;;24.57;;
59492;SDS011;45497;43.996;22.876;2022-11-20T04:23:50;28.58;;;21.90;;
59492;SDS011;45497;43.996;22.876;2022-11-20T04:26:17;31.42;;;24.13;;
59492;SDS011;45497;43.996;22.876;2022-11-20T04:28:43;31.40;;;23.47;;
59492;SDS011;45497;43.996;22.876;2022-11-20T04:31:10;30.53;;;20.87;;
59492;SDS011;45497;43.996;22.876;2022-11-20T04:33:38;27.10;;;21.05;;
59492;SDS011;45497;43.996;22.876;2022-11-20T04:36:05;25.67;;;19.93;;
59492;SDS011;45497;43.996;22.876;2022-11-20T04:38:35;29.80;;;24.97;;
59492;SDS011;45497;43.996;22.876;2022-11-20T04:41:01;28.67;;;21.83;;
59492;SDS011;45497;43.996;22.876;2022-11-20T04:43:30;26.58;;;21.25;;
59492;SDS011;45497;43.996;22.876;2022-11-20T04:45:57;27.50;;;20.30;;
59492;SDS011;45497;43.996;22.876;2022-11-20T04:48:23;28.65;;;20.95;;
59492;SDS011;45497;43.996;22.876;2022-11-20T04:50:49;27.58;;;20.08;;
59492;SDS011;45497;43.996;22.876;2022-11-20T04:53:15;45.53;;;40.93;;
59492;SDS011;45497;43.996;22.876;2022-11-20T04:55:41;31.03;;;23.53;;
59492;SDS011;45497;43.996;22.876;2022-11-20T04:58:07;27.10;;;22.15;;
59492;SDS011;45497;43.996;22.876;2022-11-20T05:00:32;29.85;;;23.05;;
59492;SDS011;45497;43.996;22.876;2022-11-20T05:02:58;30.47;;;23.93;;
59492;SDS011;45497;43.996;22.876;2022-11-20T05:05:23;30.38;;;23.88;;
59492;SDS011;45497;43.996;22.876;2022-11-20T05:07:49;27.13;;;20.40;;
59492;SDS011;45497;43.996;22.876;2022-11-20T05:10:14;29.10;;;22.50;;
59492;SDS011;45497;43.996;22.876;2022-11-20T05:12:40;25.20;;;18.20;;
59492;SDS011;45497;43.996;22.876;2022-11-20T05:15:06;24.60;;;19.03;;
59492;SDS011;45497;43.996;22.876;2022-11-20T05:17:31;27.67;;;21.20;;
59492;SDS011;45497;43.996;22.876;2022-11-20T05:19:58;51.53;;;46.67;;
59492;SDS011;45497;43.996;22.876;2022-11-20T05:22:23;27.90;;;19.80;;
59492;SDS011;45497;43.996;22.876;2022-11-20T05:24:49;26.42;;;19.08;;
59492;SDS011;45497;43.996;22.876;2022-11-20T05:27:14;30.97;;;24.53;;
59492;SDS011;45497;43.996;22.876;2022-11-20T05:29:39;33.40;;;29.75;;
59492;SDS011;45497;43.996;22.876;2022-11-20T05:32:05;21.90;;;18.17;;
59492;SDS011;45497;43.996;22.876;2022-11-20T05:34:32;28.38;;;25.20;;
59492;SDS011;45497;43.996;22.876;2022-11-20T05:36:57;21.73;;;16.97;;
59492;SDS011;45497;43.996;22.876;2022-11-20T05:39:23;22.02;;;17.10;;
59492;SDS011;45497;43.996;22.876;2022-11-20T05:41:48;20.23;;;15.50;;
59492;SDS011;45497;43.996;22.876;2022-11-20T05:44:34;20.70;;;15.57;;
59492;SDS011;45497;43.996;22.876;2022-11-20T05:46:59;19.87;;;15.17;;
59492;SDS011;45497;43.996;22.876;2022-11-20T05:49:25;20.02;;;14.77;;
59492;SDS011;45497;43.996;22.876;2022-11-20T05:51:50;19.37;;;14.70;;
59492;SDS011;45497;43.996;22.876;2022-11-20T05:54:16;18.20;;;14.00;;
59492;SDS011;45497;43.996;22.876;2022-11-20T05:56:41;19.73;;;14.60;;
59492;SDS011;45497;43.996;22.876;2022-11-20T05:59:07;18.13;;;13.73;;
59492;SDS011;45497;43.996;22.876;2022-11-20T06:01:32;19.58;;;14.23;;
59492;SDS011;45497;43.996;22.876;2022-11-20T06:03:57;19.37;;;14.33;;
59492;SDS011;45497;43.996;22.876;2022-11-20T06:06:23;16.73;;;13.98;;
59492;SDS011;45497;43.996;22.876;2022-11-20T06:08:50;18.13;;;13.63;;
59492;SDS011;45497;43.996;22.876;2022-11-20T06:11:16;17.17;;;13.63;;
59492;SDS011;45497;43.996;22.876;2022-11-20T06:13:42;17.23;;;13.35;;
59492;SDS011;45497;43.996;22.876;2022-11-20T06:16:08;18.38;;;13.35;;
59492;SDS011;45497;43.996;22.876;2022-11-20T06:18:35;17.17;;;13.50;;
59492;SDS011;45497;43.996;22.876;2022-11-20T06:21:05;18.63;;;13.50;;
59492;SDS011;45497;43.996;22.876;2022-11-20T06:23:33;18.45;;;14.10;;
59492;SDS011;45497;43.996;22.876;2022-11-20T06:26:01;18.73;;;14.65;;
59492;SDS011;45497;43.996;22.876;2022-11-20T06:28:30;17.63;;;13.93;;
59492;SDS011;45497;43.996;22.876;2022-11-20T06:30:56;18.73;;;13.95;;
59492;SDS011;45497;43.996;22.876;2022-11-20T06:33:22;20.73;;;13.75;;
59492;SDS011;45497;43.996;22.876;2022-11-20T06:35:48;21.30;;;14.55;;
59492;SDS011;45497;43.996;22.876;2022-11-20T06:38:13;18.57;;;12.63;;
59492;SDS011;45497;43.996;22.876;2022-11-20T06:40:42;19.53;;;14.27;;
59492;SDS011;45497;43.996;22.876;2022-11-20T06:43:08;20.38;;;14.18;;
59492;SDS011;45497;43.996;22.876;2022-11-20T06:45:35;21.95;;;14.65;;
59492;SDS011;45497;43.996;22.876;2022-11-20T06:48:01;20.40;;;14.80;;
59492;SDS011;45497;43.996;22.876;2022-11-20T06:50:26;20.33;;;14.83;;
59492;SDS011;45497;43.996;22.876;2022-11-20T06:52:52;19.52;;;14.50;;
59492;SDS011;45497;43.996;22.876;2022-11-20T06:55:17;19.17;;;14.27;;
59492;SDS011;45497;43.996;22.876;2022-11-20T06:57:45;19.42;;;14.43;;
59492;SDS011;45497;43.996;22.876;2022-11-20T07:00:10;18.97;;;14.37;;
59492;SDS011;45497;43.996;22.876;2022-11-20T07:02:38;20.30;;;15.13;;
59492;SDS011;45497;43.996;22.876;2022-11-20T07:05:04;17.40;;;13.90;;
59492;SDS011;45497;43.996;22.876;2022-11-20T07:07:29;18.83;;;13.93;;
59492;SDS011;45497;43.996;22.876;2022-11-20T07:09:55;18.30;;;14.05;;
59492;SDS011;45497;43.996;22.876;2022-11-20T07:12:20;18.43;;;13.83;;
59492;SDS011;45497;43.996;22.876;2022-11-20T07:14:46;19.13;;;14.32;;
59492;SDS011;45497;43.996;22.876;2022-11-20T07:17:11;19.73;;;14.30;;
59492;SDS011;45497;43.996;22.876;2022-11-20T07:19:37;18.00;;;13.90;;
59492;SDS011;45497;43.996;22.876;2022-11-20T07:22:02;17.10;;;13.63;;
59492;SDS011;45497;43.996;22.876;2022-11-20T07:24:28;16.87;;;13.00;;
59492;SDS011;45497;43.996;22.876;2022-11-20T07:26:53;16.52;;;13.65;;
59492;SDS011;45497;43.996;22.876;2022-11-20T07:29:18;17.93;;;14.50;;
59492;SDS011;45497;43.996;22.876;2022-11-20T07:31:44;45.60;;;34.83;;
59492;SDS011;45497;43.996;22.876;2022-11-20T07:34:09;19.02;;;14.43;;
59492;SDS011;45497;43.996;22.876;2022-11-20T07:36:35;15.17;;;12.47;;
59492;SDS011;45497;43.996;22.876;2022-11-20T07:39:00;14.52;;;12.27;;
59492;SDS011;45497;43.996;22.876;2022-11-20T07:41:26;15.17;;;12.53;;
59492;SDS011;45497;43.996;22.876;2022-11-20T07:43:52;14.50;;;11.98;;
59492;SDS011;45497;43.996;22.876;2022-11-20T07:46:18;14.87;;;12.83;;
59492;SDS011;45497;43.996;22.876;2022-11-20T07:48:43;14.80;;;12.40;;
59492;SDS011;45497;43.996;22.876;2022-11-20T07:51:09;17.23;;;15.50;;
59492;SDS011;45497;43.996;22.876;2022-11-20T07:53:34;14.07;;;12.00;;
59492;SDS011;45497;43.996;22.876;2022-11-20T07:56:00;13.82;;;11.63;;
59492;SDS011;45497;43.996;22.876;2022-11-20T07:58:26;16.15;;;13.10;;
59492;SDS011;45497;43.996;22.876;2022-11-20T08:00:54;15.95;;;13.50;;
59492;SDS011;45497;43.996;22.876;2022-11-20T08:03:19;13.90;;;12.03;;
59492;SDS011;45497;43.996;22.876;2022-11-20T08:05:45;14.63;;;11.80;;
59492;SDS011;45497;43.996;22.876;2022-11-20T08:08:10;13.87;;;11.20;;
59492;SDS011;45497;43.996;22.876;2022-11-20T08:10:36;13.67;;;12.03;;
59492;SDS011;45497;43.996;22.876;2022-11-20T08:13:01;15.97;;;12.83;;
59492;SDS011;45497;43.996;22.876;2022-11-20T08:15:49;17.92;;;15.20;;
59492;SDS011;45497;43.996;22.876;2022-11-20T08:18:18;18.75;;;15.40;;
59492;SDS011;45497;43.996;22.876;2022-11-20T08:20:47;26.20;;;19.70;;
59492;SDS011;45497;43.996;22.876;2022-11-20T08:23:13;22.10;;;16.83;;
59492;SDS011;45497;43.996;22.876;2022-11-20T08:25:38;22.05;;;16.83;;
59492;SDS011;45497;43.996;22.876;2022-11-20T08:28:05;19.90;;;15.18;;
59492;SDS011;45497;43.996;22.876;2022-11-20T08:30:32;19.50;;;15.23;;
59492;SDS011;45497;43.996;22.876;2022-11-20T08:33:02;22.67;;;18.90;;
59492;SDS011;45497;43.996;22.876;2022-11-20T08:35:32;21.45;;;17.50;;
59492;SDS011;45497;43.996;22.876;2022-11-20T08:37:59;19.87;;;16.07;;
59492;SDS011;45497;43.996;22.876;2022-11-20T08:40:25;15.83;;;13.03;;
59492;SDS011;45497;43.996;22.876;2022-11-20T08:42:50;15.48;;;13.20;;
59492;SDS011;45497;43.996;22.876;2022-11-20T08:45:17;16.80;;;14.03;;
59492;SDS011;45497;43.996;22.876;2022-11-20T08:47:43;17.58;;;13.48;;
59492;SDS011;45497;43.996;22.876;2022-11-20T08:50:10;21.65;;;15.95;;
59492;SDS011;45497;43.996;22.876;2022-11-20T08:52:37;19.67;;;16.02;;
59492;SDS011;45497;43.996;22.876;2022-11-20T08:55:03;17.60;;;14.52;;
59492;SDS011;45497;43.996;22.876;2022-11-20T08:57:33;20.25;;;15.75;;
59492;SDS011;45497;43.996;22.876;2022-11-20T08:59:59;19.77;;;15.82;;
59492;SDS011;45497;43.996;22.876;2022-11-20T09:02:25;21.73;;;15.75;;
59492;SDS011;45497;43.996;22.876;2022-11-20T09:04:50;19.95;;;15.45;;
59492;SDS011;45497;43.996;22.876;2022-11-20T09:07:16;23.47;;;17.20;;
59492;SDS011;45497;43.996;22.876;2022-11-20T09:09:41;18.55;;;14.70;;
59492;SDS011;45497;43.996;22.876;2022-11-20T09:12:07;22.17;;;16.93;;
59492;SDS011;45497;43.996;22.876;2022-11-20T09:14:33;21.73;;;15.43;;
59492;SDS011;45497;43.996;22.876;2022-11-20T09:16:58;21.25;;;14.63;;
59492;SDS011;45497;43.996;22.876;2022-11-20T09:19:24;18.27;;;13.93;;
59492;SDS011;45497;43.996;22.876;2022-11-20T09:21:50;18.13;;;12.95;;
59492;SDS011;45497;43.996;22.876;2022-11-20T09:24:16;17.92;;;13.50;;
59492;SDS011;45497;43.996;22.876;2022-11-20T09:26:43;15.73;;;12.20;;
59492;SDS011;45497;43.996;22.876;2022-11-20T09:29:09;13.95;;;11.02;;
59492;SDS011;45497;43.996;22.876;2022-11-20T09:31:34;15.37;;;11.60;;
59492;SDS011;45497;43.996;22.876;2022-11-20T09:34:00;13.23;;;10.52;;
59492;SDS011;45497;43.996;22.876;2022-11-20T09:36:25;16.03;;;12.33;;
59492;SDS011;45497;43.996;22.876;2022-11-20T09:38:51;19.13;;;15.00;;
59492;SDS011;45497;43.996;22.876;2022-11-20T09:49:01;15.93;;;11.83;;
59492;SDS011;45497;43.996;22.876;2022-11-20T09:51:54;15.18;;;11.20;;
59492;SDS011;45497;43.996;22.876;2022-11-20T09:54:30;17.75;;;13.02;;
59492;SDS011;45497;43.996;22.876;2022-11-20T09:57:05;17.50;;;12.90;;
59492;SDS011;45497;43.996;22.876;2022-11-20T10:02:02;18.40;;;13.53;;
59492;SDS011;45497;43.996;22.876;2022-11-20T10:04:42;17.27;;;12.47;;
59492;SDS011;45497;43.996;22.876;2022-11-20T10:09:48;23.17;;;13.68;;
59492;SDS011;45497;43.996;22.876;2022-11-20T10:16:22;14.90;;;12.23;;
59492;SDS011;45497;43.996;22.876;2022-11-20T10:24:03;11.40;;;10.25;;
59492;SDS011;45497;43.996;22.876;2022-11-20T10:29:34;13.68;;;11.43;;
59492;SDS011;45497;43.996;22.876;2022-11-20T10:32:10;14.57;;;11.05;;
59492;SDS011;45497;43.996;22.876;2022-11-20T10:34:47;13.75;;;10.90;;
59492;SDS011;45497;43.996;22.876;2022-11-20T10:37:21;18.15;;;13.43;;
59492;SDS011;45497;43.996;22.876;2022-11-20T10:42:22;19.50;;;13.63;;
59492;SDS011;45497;43.996;22.876;2022-11-20T10:45:19;13.43;;;10.35;;
59492;SDS011;45497;43.996;22.876;2022-11-20T10:47:59;12.35;;;10.70;;
59492;SDS011;45497;43.996;22.876;2022-11-20T10:50:32;12.63;;;10.98;;
59492;SDS011;45497;43.996;22.876;2022-11-20T11:02:12;10.98;;;9.80;;
59492;SDS011;45497;43.996;22.876;2022-11-20T11:04:40;13.18;;;10.57;;
59492;SDS011;45497;43.996;22.876;2022-11-20T11:07:23;12.60;;;11.07;;
59492;SDS011;45497;43.996;22.876;2022-11-20T11:09:53;12.65;;;10.15;;
59492;SDS011;45497;43.996;22.876;2022-11-20T11:12:20;12.57;;;11.10;;
59492;SDS011;45497;43.996;22.876;2022-11-20T11:14:52;13.05;;;11.30;;
59492;SDS011;45497;43.996;22.876;2022-11-20T11:17:29;17.02;;;14.75;;
59492;SDS011;45497;43.996;22.876;2022-11-20T11:22:32;13.53;;;11.43;;
59492;SDS011;45497;43.996;22.876;2022-11-20T11:24:59;19.30;;;16.97;;
59492;SDS011;45497;43.996;22.876;2022-11-20T11:27:26;16.27;;;13.57;;
59492;SDS011;45497;43.996;22.876;2022-11-20T11:30:01;15.40;;;12.25;;
59492;SDS011;45497;43.996;22.876;2022-11-20T11:32:39;13.52;;;11.18;;
59492;SDS011;45497;43.996;22.876;2022-11-20T11:35:05;13.77;;;11.07;;
59492;SDS011;45497;43.996;22.876;2022-11-20T11:37:37;12.93;;;11.55;;
59492;SDS011;45497;43.996;22.876;2022-11-20T11:40:04;15.40;;;13.00;;
59492;SDS011;45497;43.996;22.876;2022-11-20T11:42:32;15.45;;;12.32;;
59492;SDS011;45497;43.996;22.876;2022-11-20T11:44:59;13.32;;;10.35;;
59492;SDS011;45497;43.996;22.876;2022-11-20T11:47:42;13.63;;;11.73;;
59492;SDS011;45497;43.996;22.876;2022-11-20T11:52:39;18.20;;;15.93;;
59492;SDS011;45497;43.996;22.876;2022-11-20T11:55:34;13.75;;;10.43;;
59492;SDS011;45497;43.996;22.876;2022-11-20T12:00:36;10.73;;;9.27;;
59492;SDS011;45497;43.996;22.876;2022-11-20T12:05:45;17.92;;;16.13;;
59492;SDS011;45497;43.996;22.876;2022-11-20T12:08:25;31.15;;;21.73;;
59492;SDS011;45497;43.996;22.876;2022-11-20T12:16:23;58.80;;;54.15;;
59492;SDS011;45497;43.996;22.876;2022-11-20T12:18:49;13.77;;;10.40;;
59492;SDS011;45497;43.996;22.876;2022-11-20T12:29:43;10.05;;;9.00;;
59492;SDS011;45497;43.996;22.876;2022-11-20T12:39:56;10.60;;;9.60;;
59492;SDS011;45497;43.996;22.876;2022-11-20T12:45:14;31.95;;;29.25;;
59492;SDS011;45497;43.996;22.876;2022-11-20T12:51:13;11.48;;;10.40;;
59492;SDS011;45497;43.996;22.876;2022-11-20T12:56:54;26.33;;;23.92;;
59492;SDS011;45497;43.996;22.876;2022-11-20T13:07:40;12.65;;;10.15;;
59492;SDS011;45497;43.996;22.876;2022-11-20T13:10:11;13.18;;;11.25;;
59492;SDS011;45497;43.996;22.876;2022-11-20T13:12:43;25.17;;;22.92;;
59492;SDS011;45497;43.996;22.876;2022-11-20T13:18:00;10.88;;;9.70;;
59492;SDS011;45497;43.996;22.876;2022-11-20T13:20:27;48.50;;;44.47;;
59492;SDS011;45497;43.996;22.876;2022-11-20T13:22:56;13.43;;;10.73;;
59492;SDS011;45497;43.996;22.876;2022-11-20T13:25:23;12.05;;;10.80;;
59492;SDS011;45497;43.996;22.876;2022-11-20T13:27:50;14.32;;;11.68;;
59492;SDS011;45497;43.996;22.876;2022-11-20T13:30:17;14.63;;;12.38;;
59492;SDS011;45497;43.996;22.876;2022-11-20T13:35:35;48.50;;;43.73;;
59492;SDS011;45497;43.996;22.876;2022-11-20T13:40:36;53.17;;;48.90;;
59492;SDS011;45497;43.996;22.876;2022-11-20T13:45:59;10.45;;;9.18;;
59492;SDS011;45497;43.996;22.876;2022-11-20T13:48:28;12.65;;;10.88;;
59492;SDS011;45497;43.996;22.876;2022-11-20T13:59:16;10.80;;;9.70;;
59492;SDS011;45497;43.996;22.876;2022-11-20T14:01:37;13.18;;;10.63;;
59492;SDS011;45497;43.996;22.876;2022-11-20T14:04:06;13.48;;;12.05;;
59492;SDS011;45497;43.996;22.876;2022-11-20T14:06:43;16.02;;;13.77;;
59492;SDS011;45497;43.996;22.876;2022-11-20T14:11:59;15.95;;;12.60;;
59492;SDS011;45497;43.996;22.876;2022-11-20T14:14:29;20.23;;;16.47;;
59492;SDS011;45497;43.996;22.876;2022-11-20T14:17:06;14.07;;;12.57;;
59492;SDS011;45497;43.996;22.876;2022-11-20T14:19:32;17.98;;;14.60;;
59492;SDS011;45497;43.996;22.876;2022-11-20T14:24:47;16.75;;;14.10;;
59492;SDS011;45497;43.996;22.876;2022-11-20T14:27:18;17.95;;;15.45;;
59492;SDS011;45497;43.996;22.876;2022-11-20T14:29:46;25.08;;;20.80;;
59492;SDS011;45497;43.996;22.876;2022-11-20T14:32:15;27.15;;;23.25;;
59492;SDS011;45497;43.996;22.876;2022-11-20T14:34:43;26.40;;;21.48;;
59492;SDS011;45497;43.996;22.876;2022-11-20T14:37:17;24.67;;;17.85;;
59492;SDS011;45497;43.996;22.876;2022-11-20T14:39:52;22.27;;;17.75;;
59492;SDS011;45497;43.996;22.876;2022-11-20T14:42:24;22.50;;;16.77;;
59492;SDS011;45497;43.996;22.876;2022-11-20T14:44:52;18.83;;;14.75;;
59492;SDS011;45497;43.996;22.876;2022-11-20T14:47:22;16.85;;;13.45;;
59492;SDS011;45497;43.996;22.876;2022-11-20T14:49:51;16.30;;;13.40;;
59492;SDS011;45497;43.996;22.876;2022-11-20T14:52:22;11.43;;;10.17;;
59492;SDS011;45497;43.996;22.876;2022-11-20T14:54:53;13.50;;;10.27;;
59492;SDS011;45497;43.996;22.876;2022-11-20T14:57:33;12.90;;;9.63;;
59492;SDS011;45497;43.996;22.876;2022-11-20T15:00:19;13.00;;;10.18;;
59492;SDS011;45497;43.996;22.876;2022-11-20T15:02:47;16.55;;;12.88;;
59492;SDS011;45497;43.996;22.876;2022-11-20T15:05:14;14.93;;;12.02;;
59492;SDS011;45497;43.996;22.876;2022-11-20T15:07:42;21.08;;;14.20;;
59492;SDS011;45497;43.996;22.876;2022-11-20T15:12:54;16.33;;;13.25;;
59492;SDS011;45497;43.996;22.876;2022-11-20T15:17:56;13.90;;;11.35;;
59492;SDS011;45497;43.996;22.876;2022-11-20T15:20:23;14.93;;;12.10;;
59492;SDS011;45497;43.996;22.876;2022-11-20T15:22:52;17.23;;;13.13;;
59492;SDS011;45497;43.996;22.876;2022-11-20T15:25:18;17.55;;;14.13;;
59492;SDS011;45497;43.996;22.876;2022-11-20T15:27:44;20.40;;;15.20;;
59492;SDS011;45497;43.996;22.876;2022-11-20T15:30:15;12.30;;;10.38;;
59492;SDS011;45497;43.996;22.876;2022-11-20T15:32:43;11.67;;;9.03;;
59492;SDS011;45497;43.996;22.876;2022-11-20T15:35:10;11.88;;;9.38;;
59492;SDS011;45497;43.996;22.876;2022-11-20T15:37:37;9.82;;;8.10;;
59492;SDS011;45497;43.996;22.876;2022-11-20T15:40:03;9.80;;;7.70;;
59492;SDS011;45497;43.996;22.876;2022-11-20T15:42:29;9.13;;;7.33;;
59492;SDS011;45497;43.996;22.876;2022-11-20T15:44:54;10.77;;;8.30;;
59492;SDS011;45497;43.996;22.876;2022-11-20T15:47:21;10.95;;;8.80;;
59492;SDS011;45497;43.996;22.876;2022-11-20T15:49:52;11.93;;;9.65;;
59492;SDS011;45497;43.996;22.876;2022-11-20T15:52:17;13.30;;;11.13;;
59492;SDS011;45497;43.996;22.876;2022-11-20T15:54:43;14.27;;;11.10;;
59492;SDS011;45497;43.996;22.876;2022-11-20T15:57:08;14.50;;;12.27;;
59492;SDS011;45497;43.996;22.876;2022-11-20T15:59:34;17.23;;;13.40;;
59492;SDS011;45497;43.996;22.876;2022-11-20T16:02:02;15.35;;;12.40;;
59492;SDS011;45497;43.996;22.876;2022-11-20T16:04:27;16.13;;;13.80;;
59492;SDS011;45497;43.996;22.876;2022-11-20T16:06:53;13.07;;;11.00;;
59492;SDS011;45497;43.996;22.876;2022-11-20T16:09:18;12.40;;;10.90;;
59492;SDS011;45497;43.996;22.876;2022-11-20T16:11:44;17.90;;;15.98;;
59492;SDS011;45497;43.996;22.876;2022-11-20T16:14:10;20.83;;;18.73;;
59492;SDS011;45497;43.996;22.876;2022-11-20T16:16:54;11.70;;;10.17;;
59492;SDS011;45497;43.996;22.876;2022-11-20T16:19:20;13.07;;;10.27;;